Where is Samora Correia in Portugal?

 

Samora Correia is situated in the region Santarem in Portugal!

Search the name of a city:

Samofalovka, Samokhvalovo, Samodreza, Samororo, Samoeng Tai

Here you will find the location of Samora Correia on a map.
To see how it currently looks like outside, below are some pictures of the area from online web cameras.
You can also find the distance to the main cities in the region and to cities in the rest of Portugal.

World Cities
Cities in Portugal that are also found in other countries in the world.


Where is Samora Correia on the map?




Webcams near Samora Correia

Benavente › North-East: Santarém - AIrport, METAR: BENAV 180005Z 36004KT 17/14 Q1015.


Benavente › North-East: Santarém - AIrport, METAR: BENAV 180005Z 36004KT 17/14 Q1015 - Day time
Current
Benavente › North-East: Santarém - AIrport, METAR: BENAV 180005Z 36004KT 17/14 Q1015 - Current

Parque das Nacoes › South: Rua Vasco da Gama.


Parque das Nacoes › South: Rua Vasco da Gama - Day time
Current
Parque das Nacoes › South: Rua Vasco da Gama - Current

Lisbon › North: Ponte Vasco da Gama.


Lisbon › North: Ponte Vasco da Gama - Day time
Current
Lisbon › North: Ponte Vasco da Gama - Current

Webcams provided by windy.comadd a webcam


Distances

Where is Samora Correia relative to other places?

Top 10 cities in Santarem and distance from Samora Correia.

City#Populationkmmiles
Santarém1293853723
Entroncamento2198876943
Tomar3191688452
Torres Novas4145266842
Samora Correia51415400
Abrantes6136468251
Ourém7127298251
Rio Maior8120644528
Fátima9117987949
Almeirim10115563723

Top 10 cities in Portugal and distance from Samora Correia.

City # Populationkmmiles
Lisbon15177983421
Porto2249630248154
Amadora31788563723
Braga4121393293182
Setúbal51171094528
Coimbra610658014691
Queluz71033983924
Funchal8980411007626
Vila Nova de Gaia970810245152
Loures10662302918



Alerts and advice Portugal

Advice and information about traveling and security in Portugal.

With a travel advise, tourists can be informed about security risks during traveling or vacation in a foreign country. Be informed about the risks of kidnapping, armed robbery, bombings, natural disasters or war. Know which areas are unsafe in Portugalo. Be vigilant, or avoid certain areas when on vacation in Portugal.

Alerts and advice



Travel information Portugal

Information on travel documents, visa applications and the cost of a visa.
Contact information of embassies in Portugal.
Different types of travel insurance.

Travel information

Info

Statistics and Geographics

Portugal is made up of 15299 cities in 20 regions.

The region Santarem has 1174 cities.

Samora Correia is number 5 in the region Santarem.

The city is number 112 in Portugal.

The population is 14159.

Where is Samora Correia in Portugal?